Elton, West Virginia
Current Conditions -  °F | °C
As of 7:21 PM on Wednesday 22 Oct 2014 (Local Time) from KBKW Reporting Station
Overcast Overcast  
Wind Chill: 39°   Ceiling: 800
Heat Index: 43°   Visibility: 7mi
Dew Point: 40°   Wind: 7mph
Humidity: 89%   Direction: 330°NNW
Pressure: 30.16"   Gusts: NA
Location:  37.83°N, 80.8°W
Report Text: KBKW 222321Z AUTO 33006KT 7SM BKN008 OVC015 06/04 A3016 RMK AO2 CIG 006V011 T00610044 TSNO
Loading
Personal Weather Stations






























Interactive Weather Map
Tropical Storm Tracking
New forecast layout! Learn more

10-Day Weather Forecast

Advertisements
Track Severe Weather on mobile